Time;durP1;ratioP1;P1;durP2;ratioP2;P2;SDS_P1;SDS_P2;PMS_P1;PMS_P2;Temp;Humidity;BMP_temperature;BMP_pressure;BME280_temperature;BME280_humidity;BME280_pressure;Samples;Min_cycle;Max_cycle;Signal;HPM_P1;HPM_P2
2021/05/22 00:00:22;;;;;;;2.83;2.10;;;13.10;99.90;;;;;;5020892;28;20259;-71
2021/05/22 00:02:48;;;;;;;4.67;2.70;;;13.20;99.90;;;;;;5020663;28;20272;-71
2021/05/22 00:05:14;;;;;;;3.27;2.00;;;13.10;99.90;;;;;;5019132;28;20470;-71
2021/05/22 00:07:40;;;;;;;2.10;1.90;;;13.00;99.90;;;;;;5019138;28;20443;-71
2021/05/22 00:10:10;;;;;;;3.30;2.27;;;13.20;99.90;;;;;;5021074;28;20571;-70
2021/05/22 00:12:40;;;;;;;3.13;2.30;;;13.10;99.90;;;;;;5019430;28;20216;-70
2021/05/22 00:15:08;;;;;;;2.67;2.47;;;13.10;99.90;;;;;;5019676;28;20497;-71
2021/05/22 00:17:34;;;;;;;2.80;1.87;;;13.10;99.90;;;;;;5019972;28;20420;-70
2021/05/22 00:20:00;;;;;;;2.10;2.00;;;13.00;99.90;;;;;;5018155;28;20451;-71
2021/05/22 00:22:26;;;;;;;2.33;1.80;;;13.00;99.90;;;;;;5019387;28;20193;-71
2021/05/22 00:24:52;;;;;;;3.40;2.00;;;13.00;99.90;;;;;;5019897;28;20502;-71
2021/05/22 00:27:17;;;;;;;2.73;2.27;;;13.00;99.90;;;;;;5021580;28;20482;-71
2021/05/22 00:29:43;;;;;;;2.40;1.93;;;13.00;99.90;;;;;;5019532;28;20698;-71
2021/05/22 00:32:08;;;;;;;2.60;2.07;;;12.90;99.90;;;;;;5019494;28;20216;-71
2021/05/22 00:34:34;;;;;;;3.30;2.37;;;12.90;99.90;;;;;;5024040;28;20720;-71
2021/05/22 00:37:00;;;;;;;3.67;2.30;;;12.90;99.90;;;;;;5022585;28;20188;-71
2021/05/22 00:39:25;;;;;;;1.90;1.80;;;12.90;99.90;;;;;;5024206;28;20193;-71
2021/05/22 00:41:51;;;;;;;2.87;2.07;;;12.90;99.90;;;;;;5022795;28;20203;-71
2021/05/22 00:44:16;;;;;;;2.63;2.43;;;12.80;99.90;;;;;;5024567;28;20338;-71
2021/05/22 00:46:42;;;;;;;2.80;2.20;;;12.70;99.90;;;;;;5022690;28;20279;-71
2021/05/22 00:49:08;;;;;;;2.83;1.90;;;12.40;99.90;;;;;;5022206;28;20223;-71
2021/05/22 00:51:33;;;;;;;3.50;2.10;;;12.20;99.90;;;;;;5023499;28;20249;-71
2021/05/22 00:53:59;;;;;;;2.43;2.20;;;11.80;99.90;;;;;;5025455;28;20796;-71
2021/05/22 00:56:25;;;;;;;3.70;2.13;;;11.60;99.90;;;;;;5024854;28;20196;-70
2021/05/22 00:58:51;;;;;;;2.90;2.20;;;11.40;99.90;;;;;;5024374;28;20192;-71
2021/05/22 01:01:17;;;;;;;1.97;1.80;;;11.40;99.90;;;;;;5027389;28;20484;-71
2021/05/22 01:03:45;;;;;;;4.37;2.37;;;11.30;99.90;;;;;;5027625;28;20184;-71
2021/05/22 01:06:34;;;;;;;3.40;1.80;;;11.20;99.90;;;;;;5017986;28;20214;-70
2021/05/22 01:09:11;;;;;;;5.30;2.10;;;11.20;99.90;;;;;;5025751;28;20438;-71
2021/05/22 01:11:54;;;;;;;1.83;1.60;;;11.00;99.90;;;;;;5026240;28;20422;-71
2021/05/22 01:14:45;;;;;;;2.80;1.80;;;10.90;99.90;;;;;;5028983;28;20481;-71
2021/05/22 01:17:13;;;;;;;2.93;1.70;;;10.90;99.90;;;;;;5023061;28;20838;-72
2021/05/22 01:20:00;;;;;;;8.40;1.80;;;10.80;99.90;;;;;;5025059;28;21264;-71
2021/05/22 01:22:28;;;;;;;1.93;1.70;;;10.70;99.90;;;;;;5023766;28;20523;-71
2021/05/22 01:25:00;;;;;;;2.13;1.80;;;10.70;99.90;;;;;;5025042;28;20473;-70
2021/05/22 01:27:26;;;;;;;2.60;1.80;;;10.70;99.90;;;;;;5025045;28;20503;-71
2021/05/22 01:29:52;;;;;;;2.23;1.57;;;10.50;99.90;;;;;;5024353;28;20865;-71
2021/05/22 01:32:18;;;;;;;3.20;1.73;;;10.50;99.90;;;;;;5026648;28;20470;-71
2021/05/22 01:34:45;;;;;;;2.80;2.33;;;10.50;99.90;;;;;;5024108;28;20478;-70
2021/05/22 01:37:10;;;;;;;4.10;1.73;;;10.50;99.90;;;;;;5027635;28;20518;-71
2021/05/22 01:39:36;;;;;;;3.73;1.30;;;10.50;99.90;;;;;;5025190;28;21236;-70
2021/05/22 01:42:02;;;;;;;2.43;1.70;;;10.50;99.90;;;;;;5023419;28;20200;-70
2021/05/22 01:44:32;;;;;;;3.50;1.90;;;10.60;99.90;;;;;;5022711;28;20240;-70
2021/05/22 01:46:59;;;;;;;2.13;1.77;;;10.50;99.90;;;;;;5020256;28;20188;-70
2021/05/22 01:49:27;;;;;;;2.20;1.70;;;10.40;99.90;;;;;;5025177;28;20528;-70
2021/05/22 01:51:57;;;;;;;6.70;1.70;;;10.30;99.90;;;;;;5025992;28;20500;-71
2021/05/22 01:54:23;;;;;;;3.10;1.57;;;10.40;99.90;;;;;;5025184;28;20566;-70
2021/05/22 01:56:49;;;;;;;1.90;1.70;;;10.40;99.90;;;;;;5026760;28;20479;-70
2021/05/22 01:59:17;;;;;;;2.10;1.70;;;10.30;99.90;;;;;;5024112;28;20481;-71
2021/05/22 02:01:47;;;;;;;1.70;1.60;;;10.30;99.90;;;;;;5025889;28;20436;-71
2021/05/22 02:04:13;;;;;;;3.53;1.57;;;10.30;99.90;;;;;;5023781;28;20965;-71
2021/05/22 02:06:45;;;;;;;4.13;1.47;;;10.30;99.90;;;;;;5024329;28;20454;-70
2021/05/22 02:09:14;;;;;;;1.60;1.50;;;10.20;99.90;;;;;;5025303;28;20513;-70
2021/05/22 02:11:42;;;;;;;3.20;2.10;;;10.20;99.90;;;;;;5028615;28;20427;-72
2021/05/22 02:14:10;;;;;;;2.87;1.70;;;10.10;99.90;;;;;;5025995;28;20444;-71
2021/05/22 02:16:46;;;;;;;4.20;1.70;;;10.00;99.90;;;;;;5020580;28;20443;-72
2021/05/22 02:19:12;;;;;;;2.23;1.97;;;10.00;99.90;;;;;;5020357;28;20453;-72
2021/05/22 02:21:41;;;;;;;2.63;1.57;;;10.00;99.90;;;;;;5021525;28;20431;-71
2021/05/22 02:24:09;;;;;;;2.90;1.77;;;10.10;99.90;;;;;;5020761;28;20548;-71
2021/05/22 02:26:35;;;;;;;2.43;1.80;;;10.00;99.90;;;;;;5019737;28;20435;-72
2021/05/22 02:29:02;;;;;;;6.27;1.80;;;10.00;99.90;;;;;;5022967;28;20446;-72
2021/05/22 02:31:30;;;;;;;3.10;1.70;;;10.00;99.90;;;;;;5021034;28;20427;-72
2021/05/22 02:34:01;;;;;;;3.10;1.60;;;10.00;99.90;;;;;;5020877;28;20727;-71
2021/05/22 02:36:26;;;;;;;3.17;1.73;;;10.10;99.90;;;;;;5022685;28;20981;-71
2021/05/22 02:38:53;;;;;;;3.73;2.07;;;10.10;99.90;;;;;;5023084;28;20436;-71
2021/05/22 02:41:20;;;;;;;2.07;1.77;;;10.10;99.90;;;;;;5019356;28;20575;-71
2021/05/22 02:43:51;;;;;;;2.33;1.60;;;10.10;99.90;;;;;;5022388;28;20439;-71
2021/05/22 02:46:18;;;;;;;2.10;1.90;;;10.20;99.90;;;;;;5023072;28;20431;-70
2021/05/22 02:48:45;;;;;;;3.50;1.60;;;10.20;99.90;;;;;;5023060;28;20435;-71
2021/05/22 02:51:15;;;;;;;2.43;1.70;;;10.20;99.90;;;;;;5022065;28;20505;-70
2021/05/22 02:53:44;;;;;;;3.80;1.50;;;10.20;99.90;;;;;;5020927;28;21035;-71
2021/05/22 02:56:11;;;;;;;2.23;1.67;;;10.20;99.90;;;;;;5022428;28;20427;-70
2021/05/22 02:58:40;;;;;;;3.83;1.80;;;10.20;99.90;;;;;;5022021;28;20431;-70
2021/05/22 03:01:05;;;;;;;3.97;1.93;;;10.20;99.90;;;;;;5019251;28;20863;-70
2021/05/22 03:03:33;;;;;;;1.70;1.60;;;10.20;99.90;;;;;;5021684;28;20435;-70
2021/05/22 03:06:04;;;;;;;2.60;1.43;;;10.30;99.90;;;;;;5019735;28;20432;-71
2021/05/22 03:08:31;;;;;;;2.10;1.90;;;10.30;99.90;;;;;;5021132;28;20471;-71
2021/05/22 03:10:57;;;;;;;2.20;1.50;;;10.30;99.90;;;;;;5020026;28;20899;-71
2021/05/22 03:13:23;;;;;;;4.57;1.73;;;10.40;99.90;;;;;;5022846;28;20486;-71
2021/05/22 03:15:49;;;;;;;4.27;1.70;;;10.40;99.90;;;;;;5020425;28;20469;-70
2021/05/22 03:18:14;;;;;;;1.63;1.43;;;10.40;99.90;;;;;;5019662;28;21032;-72
2021/05/22 03:20:40;;;;;;;1.60;1.50;;;10.50;99.90;;;;;;5021008;28;20199;-70
2021/05/22 03:23:06;;;;;;;2.40;1.40;;;10.50;99.90;;;;;;5018857;28;20264;-70
2021/05/22 03:25:31;;;;;;;1.90;1.63;;;10.50;99.90;;;;;;5020311;28;20211;-71
2021/05/22 03:27:58;;;;;;;1.90;1.80;;;10.60;99.90;;;;;;5021346;28;20200;-72
2021/05/22 03:30:23;;;;;;;3.00;1.87;;;10.50;99.90;;;;;;5021251;28;20204;-72
2021/05/22 03:32:49;;;;;;;6.13;2.67;;;10.50;99.90;;;;;;5018078;28;20525;-72
2021/05/22 03:35:15;;;;;;;2.03;1.60;;;10.50;99.90;;;;;;5018106;28;20335;-71
2021/05/22 03:37:41;;;;;;;2.03;1.83;;;10.50;99.90;;;;;;5022562;28;20522;-71
2021/05/22 03:40:07;;;;;;;2.57;1.57;;;10.50;99.90;;;;;;5019638;28;20290;-71
2021/05/22 03:42:33;;;;;;;2.20;1.77;;;10.50;99.90;;;;;;5023171;28;20215;-72
2021/05/22 03:44:59;;;;;;;2.90;1.70;;;10.50;99.90;;;;;;5020914;28;20463;-72
2021/05/22 03:47:24;;;;;;;3.07;1.80;;;10.60;99.90;;;;;;5019891;28;20662;-72
2021/05/22 03:49:50;;;;;;;1.70;1.43;;;10.60;99.90;;;;;;5019827;28;20200;-72
2021/05/22 03:52:15;;;;;;;2.63;1.80;;;10.60;99.90;;;;;;5017993;28;20208;-70
2021/05/22 03:54:41;;;;;;;4.40;1.80;;;10.60;99.90;;;;;;5020511;28;20215;-71
2021/05/22 03:57:07;;;;;;;2.47;1.80;;;10.60;99.90;;;;;;5019168;28;20632;-71
2021/05/22 03:59:32;;;;;;;3.40;1.83;;;10.70;99.90;;;;;;5019995;28;20697;-71
2021/05/22 04:01:58;;;;;;;4.10;1.87;;;10.70;99.90;;;;;;5019074;28;20197;-71
2021/05/22 04:04:24;;;;;;;2.20;1.70;;;10.60;99.90;;;;;;5021193;28;20228;-71
2021/05/22 04:06:49;;;;;;;2.23;1.57;;;10.70;99.90;;;;;;5019588;28;20218;-71
2021/05/22 04:09:15;;;;;;;2.03;1.70;;;10.70;99.90;;;;;;5018397;28;20275;-71
2021/05/22 04:11:40;;;;;;;2.63;1.73;;;10.70;99.90;;;;;;5019818;28;20215;-71
2021/05/22 04:14:06;;;;;;;3.43;2.20;;;10.80;99.90;;;;;;5017852;28;20294;-71
2021/05/22 04:16:32;;;;;;;1.97;1.77;;;10.70;99.90;;;;;;5019399;28;20188;-71
2021/05/22 04:18:57;;;;;;;2.20;1.73;;;10.70;99.90;;;;;;5020298;28;20666;-71
2021/05/22 04:21:23;;;;;;;2.53;2.17;;;10.70;99.90;;;;;;5019013;28;20726;-71
2021/05/22 04:23:49;;;;;;;4.23;1.80;;;10.60;99.90;;;;;;5020378;28;20697;-71
2021/05/22 04:26:14;;;;;;;6.37;1.80;;;10.60;99.90;;;;;;5017841;28;20196;-71
2021/05/22 04:28:40;;;;;;;2.33;1.80;;;10.60;99.90;;;;;;5017555;28;20231;-71
2021/05/22 04:31:06;;;;;;;2.60;2.40;;;10.60;99.90;;;;;;5019986;28;20192;-71
2021/05/22 04:33:31;;;;;;;1.97;1.40;;;10.60;99.90;;;;;;5019535;28;22367;-71
2021/05/22 04:35:57;;;;;;;2.37;1.77;;;10.60;99.90;;;;;;5021086;28;20204;-71
2021/05/22 04:38:23;;;;;;;3.63;1.73;;;10.70;99.90;;;;;;5018366;28;20211;-71
2021/05/22 04:40:48;;;;;;;3.93;2.00;;;10.60;99.90;;;;;;5019885;28;20435;-71
2021/05/22 04:43:14;;;;;;;3.40;1.73;;;10.70;99.90;;;;;;5019069;28;20233;-71
2021/05/22 04:45:40;;;;;;;1.93;1.63;;;10.70;99.90;;;;;;5019593;28;20215;-71
2021/05/22 04:48:06;;;;;;;7.40;1.83;;;10.70;99.90;;;;;;5019000;28;20459;-71
2021/05/22 04:50:32;;;;;;;2.30;1.57;;;10.70;99.90;;;;;;5020398;28;20235;-71
2021/05/22 04:52:59;;;;;;;3.17;1.63;;;10.80;99.90;;;;;;5018734;28;20696;-70
2021/05/22 04:55:25;;;;;;;3.33;1.70;;;10.80;99.90;;;;;;5019119;28;20467;-70
2021/05/22 04:57:51;;;;;;;2.83;2.00;;;10.80;99.90;;;;;;5021125;28;20442;-71
2021/05/22 05:00:17;;;;;;;2.77;1.80;;;10.90;99.90;;;;;;5019169;28;20518;-71
2021/05/22 05:02:43;;;;;;;2.00;1.77;;;10.90;99.90;;;;;;5018897;28;20314;-71
2021/05/22 05:05:09;;;;;;;2.13;1.60;;;11.00;99.90;;;;;;5016750;28;20565;-71
2021/05/22 05:07:35;;;;;;;3.20;1.87;;;11.00;99.90;;;;;;5021789;28;20231;-70
2021/05/22 05:10:00;;;;;;;5.03;1.87;;;11.00;99.90;;;;;;5018445;28;20474;-71
2021/05/22 05:12:26;;;;;;;2.77;2.30;;;11.00;99.90;;;;;;5019535;28;20220;-70
2021/05/22 05:14:52;;;;;;;6.40;1.80;;;11.10;99.90;;;;;;5019286;28;20216;-71
2021/05/22 05:17:17;;;;;;;4.80;1.87;;;11.10;99.90;;;;;;5018667;28;20218;-71
2021/05/22 05:19:43;;;;;;;4.43;1.80;;;11.10;99.90;;;;;;5022909;28;20188;-71
2021/05/22 05:22:08;;;;;;;3.63;1.60;;;11.10;99.90;;;;;;5024223;28;20254;-71
2021/05/22 05:24:34;;;;;;;1.90;1.80;;;11.20;99.90;;;;;;5022636;28;20294;-71
2021/05/22 05:27:00;;;;;;;3.43;1.73;;;11.30;99.90;;;;;;5023386;28;20203;-71
2021/05/22 05:29:26;;;;;;;3.27;2.27;;;11.40;99.90;;;;;;5025911;28;20454;-70
2021/05/22 05:31:52;;;;;;;2.07;1.90;;;11.40;99.90;;;;;;5020570;28;20442;-71
2021/05/22 05:34:17;;;;;;;6.20;2.50;;;11.60;99.90;;;;;;5022224;28;20334;-71
2021/05/22 05:36:43;;;;;;;2.20;1.93;;;11.50;99.90;;;;;;5024196;28;20197;-71
2021/05/22 05:39:10;;;;;;;3.17;2.00;;;11.60;99.90;;;;;;5023872;28;20227;-71
2021/05/22 05:41:36;;;;;;;3.63;2.20;;;11.70;99.90;;;;;;5019969;28;20585;-71
2021/05/22 05:44:02;;;;;;;6.10;2.40;;;11.70;99.90;;;;;;5022204;28;20450;-71
2021/05/22 05:46:28;;;;;;;6.50;1.93;;;11.70;99.90;;;;;;5021052;28;20446;-71
2021/05/22 05:48:53;;;;;;;1.73;1.60;;;11.80;99.90;;;;;;5021129;28;20486;-71
2021/05/22 05:51:19;;;;;;;3.20;1.90;;;11.90;99.90;;;;;;5021377;28;20560;-70
2021/05/22 05:53:45;;;;;;;4.70;2.00;;;11.90;99.90;;;;;;5021356;28;20608;-71
2021/05/22 05:56:10;;;;;;;6.57;1.93;;;12.00;99.90;;;;;;5015814;28;20197;-71
2021/05/22 05:58:36;;;;;;;4.80;2.37;;;12.00;99.90;;;;;;5020865;28;20184;-71
2021/05/22 06:01:06;;;;;;;3.27;2.03;;;12.00;99.90;;;;;;5020851;28;20242;-71
2021/05/22 06:03:33;;;;;;;3.20;2.27;;;12.10;99.90;;;;;;5022522;28;20273;-71
2021/05/22 06:05:58;;;;;;;5.50;2.20;;;12.10;99.90;;;;;;5022204;28;20439;-71
2021/05/22 06:08:24;;;;;;;5.27;2.33;;;12.20;99.90;;;;;;5023896;28;20446;-71
2021/05/22 06:10:52;;;;;;;3.13;2.40;;;12.20;99.90;;;;;;5021836;28;20199;-70
2021/05/22 06:13:26;;;;;;;4.50;2.00;;;12.30;99.90;;;;;;5020256;28;21170;-71
2021/05/22 06:16:00;;;;;;;3.97;2.03;;;12.30;99.90;;;;;;5021300;28;20461;-71
2021/05/22 06:18:31;;;;;;;6.23;2.63;;;12.30;99.90;;;;;;5019641;28;20435;-72
2021/05/22 06:20:57;;;;;;;5.37;1.90;;;12.40;99.90;;;;;;5022184;28;21095;-71
2021/05/22 06:23:23;;;;;;;2.53;2.27;;;12.50;99.90;;;;;;5019956;28;20474;-71
2021/05/22 06:25:50;;;;;;;4.40;2.00;;;12.60;99.90;;;;;;5021991;28;20470;-71
2021/05/22 06:28:17;;;;;;;5.63;2.37;;;12.60;99.90;;;;;;5019930;28;20193;-70
2021/05/22 06:30:42;;;;;;;5.93;1.93;;;12.70;99.90;;;;;;5021656;28;20530;-72
2021/05/22 06:33:08;;;;;;;4.20;2.50;;;12.60;99.90;;;;;;5021256;28;20534;-70
2021/05/22 06:35:33;;;;;;;3.60;2.13;;;12.60;99.90;;;;;;5021623;28;20213;-71
2021/05/22 06:37:59;;;;;;;3.90;2.20;;;12.70;99.90;;;;;;5022165;28;20900;-71
2021/05/22 06:40:25;;;;;;;3.63;2.07;;;12.80;99.90;;;;;;5021300;28;20180;-71
2021/05/22 06:42:50;;;;;;;4.00;2.30;;;12.90;99.90;;;;;;5023870;28;20620;-70
2021/05/22 06:45:17;;;;;;;3.50;2.20;;;13.00;99.90;;;;;;5021922;28;20220;-71
2021/05/22 06:47:43;;;;;;;3.53;2.00;;;13.00;99.90;;;;;;5020572;28;20712;-71
2021/05/22 06:50:09;;;;;;;6.17;2.20;;;13.00;99.90;;;;;;5021250;28;20447;-72
2021/05/22 06:52:35;;;;;;;3.07;2.10;;;13.10;99.90;;;;;;5022620;28;20236;-70
2021/05/22 06:55:01;;;;;;;4.87;2.10;;;13.30;99.90;;;;;;5021467;28;20455;-71
2021/05/22 06:57:27;;;;;;;7.20;2.83;;;13.40;99.90;;;;;;5022122;28;20558;-71
2021/05/22 06:59:53;;;;;;;4.87;2.17;;;13.30;99.90;;;;;;5021885;28;20534;-71
2021/05/22 07:02:19;;;;;;;3.67;2.00;;;13.30;99.90;;;;;;5019702;28;20219;-70
2021/05/22 07:04:45;;;;;;;2.97;2.37;;;13.40;99.90;;;;;;5021574;28;20466;-71
2021/05/22 07:07:10;;;;;;;2.83;2.27;;;13.40;99.90;;;;;;5022446;28;20612;-72
2021/05/22 07:09:36;;;;;;;4.50;1.73;;;13.40;99.90;;;;;;5021411;28;20204;-71
2021/05/22 07:12:02;;;;;;;4.63;2.33;;;13.50;99.90;;;;;;5019907;28;20300;-71
2021/05/22 07:14:29;;;;;;;3.30;2.17;;;13.60;99.90;;;;;;5020739;28;20338;-71
2021/05/22 07:16:57;;;;;;;6.73;2.60;;;13.60;99.90;;;;;;5021373;28;20446;-72
2021/05/22 07:19:23;;;;;;;2.23;2.03;;;13.50;99.90;;;;;;5021618;28;20450;-71
2021/05/22 07:21:50;;;;;;;3.50;2.00;;;13.50;99.90;;;;;;5021757;28;20933;-71
2021/05/22 07:24:17;;;;;;;3.77;2.23;;;13.60;99.90;;;;;;5021632;28;20857;-71
2021/05/22 07:26:42;;;;;;;4.90;2.10;;;13.60;99.90;;;;;;5022279;28;20439;-71
2021/05/22 07:29:08;;;;;;;2.20;1.93;;;13.70;99.90;;;;;;5021507;28;20933;-71
2021/05/22 07:31:34;;;;;;;3.80;2.30;;;13.80;99.90;;;;;;5021220;28;20188;-71
2021/05/22 07:34:01;;;;;;;2.93;2.63;;;13.90;99.90;;;;;;5019833;28;20224;-71
2021/05/22 07:36:27;;;;;;;11.50;2.70;;;13.80;99.90;;;;;;5021254;28;20197;-71
2021/05/22 07:38:52;;;;;;;6.87;2.10;;;13.90;99.90;;;;;;5023236;28;20875;-71
2021/05/22 07:41:18;;;;;;;3.73;2.63;;;13.90;99.90;;;;;;5019520;28;20189;-71
2021/05/22 07:43:44;;;;;;;6.50;2.90;;;14.00;99.90;;;;;;5018989;28;20199;-71
2021/05/22 07:46:09;;;;;;;5.13;2.60;;;13.90;99.90;;;;;;5020810;28;20262;-71
2021/05/22 07:48:35;;;;;;;3.73;2.33;;;14.10;99.90;;;;;;5021718;28;20624;-71
2021/05/22 07:51:01;;;;;;;5.23;2.47;;;14.30;99.90;;;;;;5018984;28;20212;-71
2021/05/22 07:53:27;;;;;;;3.13;2.00;;;14.40;99.90;;;;;;5020529;28;20216;-71
2021/05/22 07:55:52;;;;;;;7.20;2.77;;;14.30;99.90;;;;;;5021874;28;20449;-71
2021/05/22 07:58:18;;;;;;;3.87;2.50;;;14.30;99.90;;;;;;5019960;28;20200;-71
2021/05/22 08:00:44;;;;;;;2.80;2.33;;;14.10;99.90;;;;;;5021374;28;20718;-72
2021/05/22 08:03:10;;;;;;;2.23;2.03;;;14.10;99.90;;;;;;5022727;28;20192;-72
2021/05/22 08:05:36;;;;;;;3.10;2.30;;;14.10;99.90;;;;;;5023970;28;20517;-72
2021/05/22 08:08:02;;;;;;;3.13;2.20;;;14.20;99.90;;;;;;5022617;28;20310;-71
2021/05/22 08:10:28;;;;;;;4.23;2.40;;;14.30;99.90;;;;;;5024632;28;20204;-70
2021/05/22 08:12:53;;;;;;;4.23;2.53;;;14.40;99.90;;;;;;5023971;28;20466;-71
2021/05/22 08:15:19;;;;;;;3.80;2.63;;;14.60;99.90;;;;;;5023366;28;20216;-72
2021/05/22 08:17:44;;;;;;;4.13;2.77;;;14.70;99.90;;;;;;5019816;28;20746;-71
2021/05/22 08:20:11;;;;;;;6.17;3.10;;;14.80;99.90;;;;;;5021727;28;20208;-70
2021/05/22 08:22:37;;;;;;;3.23;2.47;;;14.80;99.90;;;;;;5024824;28;20196;-71
2021/05/22 08:25:05;;;;;;;5.63;3.00;;;14.70;99.90;;;;;;5021060;28;20469;-70
2021/05/22 08:27:31;;;;;;;3.50;2.37;;;14.70;99.90;;;;;;5020736;28;21070;-71
2021/05/22 08:29:57;;;;;;;3.07;2.13;;;14.80;99.90;;;;;;5023122;28;20463;-71
2021/05/22 08:32:24;;;;;;;4.07;2.20;;;14.80;99.90;;;;;;5002421;28;20638;-71
2021/05/22 08:34:50;;;;;;;6.50;1.80;;;14.70;99.90;;;;;;5021051;28;20993;-71
2021/05/22 08:37:19;;;;;;;2.77;2.10;;;14.80;99.90;;;;;;5018201;28;20438;-71
2021/05/22 08:39:45;;;;;;;8.77;2.27;;;14.90;99.90;;;;;;5019334;28;20308;-72
2021/05/22 08:42:23;;;;;;;2.83;2.50;;;14.80;99.90;;;;;;5021268;28;20522;-72
2021/05/22 08:44:49;;;;;;;3.97;2.47;;;14.80;99.90;;;;;;5021326;28;20228;-70
2021/05/22 08:47:15;;;;;;;3.30;2.50;;;14.80;99.90;;;;;;5022253;28;20459;-71
2021/05/22 08:49:42;;;;;;;6.90;3.00;;;14.90;99.90;;;;;;5020882;28;20462;-71
2021/05/22 08:52:13;;;;;;;4.67;2.50;;;15.00;99.90;;;;;;5021087;28;21118;-71
2021/05/22 08:54:39;;;;;;;2.90;2.63;;;15.10;99.90;;;;;;5023146;28;20466;-72
2021/05/22 08:57:06;;;;;;;4.40;2.37;;;15.30;99.90;;;;;;5024221;28;20442;-71
2021/05/22 08:59:32;;;;;;;2.77;2.30;;;15.40;99.90;;;;;;5024347;28;20435;-71
2021/05/22 09:01:58;;;;;;;5.90;2.67;;;15.30;99.90;;;;;;5025489;28;20435;-71
2021/05/22 09:04:24;;;;;;;3.53;2.40;;;15.20;99.90;;;;;;5026657;28;20459;-72
2021/05/22 09:07:02;;;;;;;3.00;2.70;;;15.30;99.90;;;;;;5023812;28;20219;-71
2021/05/22 09:09:42;;;;;;;5.73;2.77;;;15.40;99.90;;;;;;5023547;28;20686;-70
2021/05/22 09:12:09;;;;;;;2.50;2.30;;;15.50;99.90;;;;;;5023313;28;20945;-70
2021/05/22 09:14:51;;;;;;;6.53;2.60;;;15.60;99.90;;;;;;5024440;28;20546;-71
2021/05/22 09:17:17;;;;;;;5.30;2.40;;;15.70;99.90;;;;;;5026378;28;20423;-71
2021/05/22 09:19:43;;;;;;;7.17;3.90;;;15.70;99.90;;;;;;5024292;28;20657;-71
2021/05/22 09:22:23;;;;;;;9.77;2.90;;;15.80;99.90;;;;;;5015921;28;20816;-71
2021/05/22 09:25:03;;;;;;;6.80;2.90;;;15.90;99.90;;;;;;5019803;28;20486;-72
2021/05/22 09:27:37;;;;;;;6.60;3.63;;;16.20;99.90;;;;;;5015721;28;20444;-71
2021/05/22 09:30:06;;;;;;;4.57;2.30;;;16.30;99.90;;;;;;5019174;28;20525;-71
2021/05/22 09:32:32;;;;;;;3.60;2.53;;;16.40;99.90;;;;;;5024665;28;20497;-73
2021/05/22 09:34:57;;;;;;;3.33;2.37;;;16.40;99.90;;;;;;5026038;28;20450;-71
2021/05/22 09:37:23;;;;;;;3.43;2.50;;;16.40;99.90;;;;;;5023957;28;20188;-71
2021/05/22 09:39:51;;;;;;;4.77;2.50;;;16.50;99.90;;;;;;5026676;28;20279;-70
2021/05/22 09:42:25;;;;;;;3.07;2.70;;;16.60;99.90;;;;;;5024891;28;20459;-71
2021/05/22 09:44:51;;;;;;;4.90;2.37;;;16.70;99.90;;;;;;5026060;28;20477;-72
2021/05/22 09:47:17;;;;;;;5.07;2.77;;;16.60;99.90;;;;;;5020788;28;20466;-71
2021/05/22 09:49:43;;;;;;;4.93;2.73;;;16.80;99.90;;;;;;5024055;28;20534;-71
2021/05/22 09:52:11;;;;;;;7.00;2.60;;;17.10;99.90;;;;;;5025276;28;20467;-72
2021/05/22 09:54:47;;;;;;;3.80;2.53;;;17.20;99.90;;;;;;5025573;28;20216;-72
2021/05/22 09:57:17;;;;;;;3.07;2.83;;;17.20;99.90;;;;;;5023885;28;20509;-72
2021/05/22 10:00:02;;;;;;;3.03;2.70;;;17.00;99.90;;;;;;5024680;28;20518;-71
2021/05/22 10:02:49;;;;;;;5.50;2.60;;;17.00;99.70;;;;;;5023618;28;20442;-71
2021/05/22 10:05:19;;;;;;;2.97;2.77;;;17.00;98.60;;;;;;5019922;28;20612;-71
2021/05/22 10:07:46;;;;;;;3.60;3.10;;;16.90;98.30;;;;;;5025493;28;20506;-71
2021/05/22 10:10:14;;;;;;;7.03;3.30;;;17.00;98.00;;;;;;5025127;28;20451;-71
2021/05/22 10:12:41;;;;;;;4.03;3.10;;;17.20;98.40;;;;;;5023940;28;20489;-72
2021/05/22 10:15:09;;;;;;;4.50;3.20;;;17.00;95.30;;;;;;5023046;28;21046;-71
2021/05/22 10:17:34;;;;;;;4.50;2.90;;;16.90;95.60;;;;;;5022804;28;20439;-71
2021/05/22 10:20:00;;;;;;;7.20;2.80;;;17.00;96.40;;;;;;5024336;28;20540;-72
2021/05/22 10:22:26;;;;;;;3.33;2.77;;;17.00;96.80;;;;;;5024272;28;20200;-68
2021/05/22 10:24:53;;;;;;;3.00;2.80;;;17.00;95.60;;;;;;5022426;28;20208;-68
2021/05/22 10:27:20;;;;;;;2.80;2.60;;;17.20;94.10;;;;;;5023590;28;20431;-71
2021/05/22 10:29:46;;;;;;;3.00;2.70;;;17.40;93.60;;;;;;5025998;28;20459;-71
2021/05/22 10:32:23;;;;;;;3.00;2.40;;;17.40;91.80;;;;;;5022632;28;20482;-71
2021/05/22 10:34:50;;;;;;;4.90;3.60;;;17.20;91.30;;;;;;5024886;28;20515;-71
2021/05/22 10:37:35;;;;;;;3.00;2.70;;;17.20;91.40;;;;;;5022241;28;21163;-71
2021/05/22 10:40:00;;;;;;;4.43;3.10;;;17.10;89.30;;;;;;5019064;28;20859;-71
2021/05/22 10:42:26;;;;;;;4.40;2.90;;;17.10;91.10;;;;;;5022268;28;20500;-72
2021/05/22 10:44:52;;;;;;;4.03;3.00;;;17.00;90.70;;;;;;5020735;28;20643;-73
2021/05/22 10:47:19;;;;;;;9.00;5.90;;;17.00;90.90;;;;;;5024422;28;20212;-72
2021/05/22 10:49:47;;;;;;;4.30;2.77;;;17.10;91.40;;;;;;5022265;28;20457;-69
2021/05/22 10:52:16;;;;;;;3.13;2.83;;;17.30;90.90;;;;;;5021645;28;20483;-71
2021/05/22 10:55:02;;;;;;;4.40;2.73;;;17.30;91.00;;;;;;5022203;28;20459;-71
2021/05/22 10:57:28;;;;;;;3.00;2.70;;;17.50;89.90;;;;;;5023335;28;20415;-71
2021/05/22 11:00:24;;;;;;;13.10;8.77;;;17.90;88.70;;;;;;5021732;28;20466;-70
2021/05/22 11:03:08;;;;;;;4.03;3.37;;;18.00;87.80;;;;;;5022697;28;20448;-68
2021/05/22 11:05:42;;;;;;;4.80;3.23;;;18.20;86.30;;;;;;5023414;28;20462;-71
2021/05/22 11:08:08;;;;;;;12.77;9.03;;;18.20;84.80;;;;;;5020193;28;20522;-71
2021/05/22 11:10:44;;;;;;;3.30;3.00;;;18.20;82.50;;;;;;5021448;28;21012;-70
2021/05/22 11:13:30;;;;;;;4.47;3.40;;;18.30;80.80;;;;;;5026446;28;20203;-71
2021/05/22 11:15:58;;;;;;;7.20;3.10;;;18.40;80.00;;;;;;5023705;28;20443;-71
2021/05/22 11:18:33;;;;;;;11.23;3.40;;;18.40;80.00;;;;;;5023006;28;20431;-70
2021/05/22 11:21:08;;;;;;;3.00;2.70;;;18.60;76.10;;;;;;5021867;28;20435;-71
2021/05/22 11:23:59;;;;;;;3.73;2.87;;;18.60;77.30;;;;;;5023018;28;20584;-70
2021/05/22 11:26:48;;;;;;;3.60;3.00;;;18.80;77.30;;;;;;5022167;28;20435;-71
2021/05/22 11:29:14;;;;;;;3.70;2.73;;;19.00;73.80;;;;;;5024354;28;20504;-71
2021/05/22 11:31:39;;;;;;;6.07;3.23;;;18.90;72.50;;;;;;5022883;28;20451;-72
2021/05/22 11:34:23;;;;;;;3.07;2.77;;;19.00;71.40;;;;;;5023471;28;20537;-71
2021/05/22 11:37:30;;;;;;;3.10;2.80;;;18.60;70.20;;;;;;5025507;28;20192;-70
2021/05/22 11:39:56;;;;;;;3.10;2.80;;;18.60;69.90;;;;;;5023299;28;20485;-72
2021/05/22 11:42:32;;;;;;;2.80;2.60;;;18.60;71.50;;;;;;5023165;28;20439;-72
2021/05/22 11:45:00;;;;;;;8.23;2.93;;;18.70;72.20;;;;;;5031372;28;20594;-71
2021/05/22 11:47:34;;;;;;;3.10;2.80;;;18.80;70.60;;;;;;5023858;28;20427;-71
2021/05/22 11:50:00;;;;;;;3.10;2.90;;;18.80;69.30;;;;;;5023427;28;20527;-71
2021/05/22 11:52:33;;;;;;;3.57;2.77;;;18.80;70.00;;;;;;5020194;28;20529;-69
2021/05/22 11:55:01;;;;;;;3.30;3.00;;;18.50;69.30;;;;;;5021431;28;20489;-71
2021/05/22 11:57:27;;;;;;;2.50;2.30;;;18.20;70.20;;;;;;5023214;28;20439;-72
2021/05/22 11:59:53;;;;;;;3.27;2.77;;;18.00;71.30;;;;;;5023645;28;20430;-69
2021/05/22 12:02:38;;;;;;;2.93;2.73;;;17.90;72.80;;;;;;5023870;28;20725;-71
2021/05/22 12:05:06;;;;;;;3.50;3.20;;;17.90;73.30;;;;;;5024539;28;20794;-71
2021/05/22 12:07:51;;;;;;;3.00;2.80;;;18.10;74.70;;;;;;5021443;28;20454;-72
2021/05/22 12:10:18;;;;;;;2.97;2.77;;;18.30;74.30;;;;;;5021772;28;20431;-71
2021/05/22 12:12:45;;;;;;;3.03;2.83;;;18.40;74.20;;;;;;5022526;28;20503;-70
2021/05/22 12:15:24;;;;;;;7.30;2.90;;;18.40;73.30;;;;;;5023208;28;20455;-72
2021/05/22 12:17:51;;;;;;;2.90;2.70;;;18.50;74.60;;;;;;5023343;28;21187;-71
2021/05/22 12:20:21;;;;;;;3.27;3.00;;;18.50;73.90;;;;;;5023504;28;20443;-70
2021/05/22 12:22:46;;;;;;;4.10;3.70;;;18.50;74.40;;;;;;5022300;28;20442;-71
2021/05/22 12:25:13;;;;;;;3.20;3.00;;;18.40;74.80;;;;;;5023734;28;21226;-70
2021/05/22 12:27:40;;;;;;;5.00;3.13;;;18.40;75.70;;;;;;5022436;28;20189;-71
2021/05/22 12:30:08;;;;;;;3.40;3.10;;;18.20;77.60;;;;;;5029075;28;20446;-71
2021/05/22 12:32:33;;;;;;;4.07;3.50;;;18.00;80.00;;;;;;5024529;28;20473;-73
2021/05/22 12:35:09;;;;;;;3.10;2.90;;;17.90;81.10;;;;;;5027469;28;20435;-72
2021/05/22 12:37:35;;;;;;;2.80;2.60;;;17.90;81.60;;;;;;5028680;28;20478;-71
2021/05/22 12:40:05;;;;;;;3.43;3.13;;;17.80;80.30;;;;;;5027613;28;20494;-71
2021/05/22 12:42:38;;;;;;;2.30;2.10;;;17.70;79.30;;;;;;5030044;28;20435;-72
2021/05/22 12:45:16;;;;;;;2.40;2.20;;;17.80;79.90;;;;;;5027126;28;20588;-72
2021/05/22 12:47:50;;;;;;;3.20;2.50;;;17.80;78.60;;;;;;5029472;28;20442;-72
2021/05/22 12:50:25;;;;;;;2.53;2.33;;;17.80;77.20;;;;;;5023549;28;20438;-71